sensor_id;sensor_type;location;lat;lon;timestamp;temperature;humidity
41678;DHT22;27364;49.026;8.712;2022-12-18T00:00:48;-5.40;99.90
41678;DHT22;27364;49.026;8.712;2022-12-18T00:03:14;-5.40;99.90
41678;DHT22;27364;49.026;8.712;2022-12-18T00:05:50;-5.40;99.90
41678;DHT22;27364;49.026;8.712;2022-12-18T00:08:16;-5.40;99.90
41678;DHT22;27364;49.026;8.712;2022-12-18T00:10:42;-5.50;99.90
41678;DHT22;27364;49.026;8.712;2022-12-18T00:13:09;-5.60;99.90
41678;DHT22;27364;49.026;8.712;2022-12-18T00:15:35;-5.70;99.90
41678;DHT22;27364;49.026;8.712;2022-12-18T00:18:02;-5.60;99.90
41678;DHT22;27364;49.026;8.712;2022-12-18T00:20:27;-5.60;99.90
41678;DHT22;27364;49.026;8.712;2022-12-18T00:22:54;-5.50;99.90
41678;DHT22;27364;49.026;8.712;2022-12-18T00:25:20;-5.60;99.90
41678;DHT22;27364;49.026;8.712;2022-12-18T00:27:46;-5.90;99.90
41678;DHT22;27364;49.026;8.712;2022-12-18T00:30:12;-6.20;99.90
41678;DHT22;27364;49.026;8.712;2022-12-18T00:32:37;-6.30;99.90
41678;DHT22;27364;49.026;8.712;2022-12-18T00:35:04;-6.40;99.90
41678;DHT22;27364;49.026;8.712;2022-12-18T00:37:29;-6.30;99.90
41678;DHT22;27364;49.026;8.712;2022-12-18T00:39:55;-6.20;99.90
41678;DHT22;27364;49.026;8.712;2022-12-18T00:42:21;-6.10;99.90
41678;DHT22;27364;49.026;8.712;2022-12-18T00:45:05;-6.00;99.90
41678;DHT22;27364;49.026;8.712;2022-12-18T00:47:31;-5.80;99.90
41678;DHT22;27364;49.026;8.712;2022-12-18T00:49:56;-5.70;99.90
41678;DHT22;27364;49.026;8.712;2022-12-18T00:52:22;-5.70;99.90
41678;DHT22;27364;49.026;8.712;2022-12-18T00:54:48;-6.00;99.90
41678;DHT22;27364;49.026;8.712;2022-12-18T00:57:13;-5.90;99.90
41678;DHT22;27364;49.026;8.712;2022-12-18T00:59:39;-5.80;99.90
41678;DHT22;27364;49.026;8.712;2022-12-18T01:02:04;-5.80;99.90
41678;DHT22;27364;49.026;8.712;2022-12-18T01:04:32;-5.90;99.90
41678;DHT22;27364;49.026;8.712;2022-12-18T01:06:57;-5.80;99.90
41678;DHT22;27364;49.026;8.712;2022-12-18T01:09:23;-5.80;99.90
41678;DHT22;27364;49.026;8.712;2022-12-18T01:11:48;-5.80;99.90
41678;DHT22;27364;49.026;8.712;2022-12-18T01:14:14;-5.80;99.90
41678;DHT22;27364;49.026;8.712;2022-12-18T01:16:40;-5.70;99.90
41678;DHT22;27364;49.026;8.712;2022-12-18T01:19:06;-5.70;99.90
41678;DHT22;27364;49.026;8.712;2022-12-18T01:21:31;-5.60;99.90
41678;DHT22;27364;49.026;8.712;2022-12-18T01:23:57;-5.60;99.90
41678;DHT22;27364;49.026;8.712;2022-12-18T01:26:23;-5.50;99.90
41678;DHT22;27364;49.026;8.712;2022-12-18T01:28:49;-5.50;99.90
41678;DHT22;27364;49.026;8.712;2022-12-18T01:31:24;-5.50;99.90
41678;DHT22;27364;49.026;8.712;2022-12-18T01:33:50;-5.40;99.90
41678;DHT22;27364;49.026;8.712;2022-12-18T01:36:28;-5.40;99.90
41678;DHT22;27364;49.026;8.712;2022-12-18T01:38:54;-5.30;99.90
41678;DHT22;27364;49.026;8.712;2022-12-18T01:41:23;-5.40;99.90
41678;DHT22;27364;49.026;8.712;2022-12-18T01:43:57;-5.60;99.90
41678;DHT22;27364;49.026;8.712;2022-12-18T01:46:25;-5.70;99.90
41678;DHT22;27364;49.026;8.712;2022-12-18T01:48:57;-5.60;99.90
41678;DHT22;27364;49.026;8.712;2022-12-18T01:51:23;-5.60;99.90
41678;DHT22;27364;49.026;8.712;2022-12-18T01:53:49;-5.60;99.90
41678;DHT22;27364;49.026;8.712;2022-12-18T01:56:17;-5.70;99.90
41678;DHT22;27364;49.026;8.712;2022-12-18T01:58:48;-5.90;99.90
41678;DHT22;27364;49.026;8.712;2022-12-18T02:01:15;-5.90;99.90
41678;DHT22;27364;49.026;8.712;2022-12-18T02:03:42;-6.00;99.90
41678;DHT22;27364;49.026;8.712;2022-12-18T02:06:39;-6.00;99.90
41678;DHT22;27364;49.026;8.712;2022-12-18T02:09:12;-5.90;99.90
41678;DHT22;27364;49.026;8.712;2022-12-18T02:11:53;-5.90;99.90
41678;DHT22;27364;49.026;8.712;2022-12-18T02:14:59;-5.90;99.90
41678;DHT22;27364;49.026;8.712;2022-12-18T02:17:50;-5.80;99.90
41678;DHT22;27364;49.026;8.712;2022-12-18T02:21:04;-5.60;99.90
41678;DHT22;27364;49.026;8.712;2022-12-18T02:28:54;-5.80;99.90
41678;DHT22;27364;49.026;8.712;2022-12-18T02:31:25;-6.10;99.90
41678;DHT22;27364;49.026;8.712;2022-12-18T02:33:53;-6.10;99.90
41678;DHT22;27364;49.026;8.712;2022-12-18T02:36:22;-6.10;99.90
41678;DHT22;27364;49.026;8.712;2022-12-18T02:38:48;-6.10;99.90
41678;DHT22;27364;49.026;8.712;2022-12-18T02:41:15;-6.20;99.90
41678;DHT22;27364;49.026;8.712;2022-12-18T02:43:47;-6.20;99.90
41678;DHT22;27364;49.026;8.712;2022-12-18T02:48:56;-6.30;99.90
41678;DHT22;27364;49.026;8.712;2022-12-18T02:51:37;-6.30;99.90
41678;DHT22;27364;49.026;8.712;2022-12-18T02:54:33;-6.30;99.90
41678;DHT22;27364;49.026;8.712;2022-12-18T02:57:09;-6.30;99.90
41678;DHT22;27364;49.026;8.712;2022-12-18T02:59:51;-6.20;99.90
41678;DHT22;27364;49.026;8.712;2022-12-18T03:02:45;-6.20;99.90
41678;DHT22;27364;49.026;8.712;2022-12-18T03:05:22;-6.20;99.90
41678;DHT22;27364;49.026;8.712;2022-12-18T03:08:10;-6.20;99.90
41678;DHT22;27364;49.026;8.712;2022-12-18T03:10:42;-6.20;99.90
41678;DHT22;27364;49.026;8.712;2022-12-18T03:13:14;-6.30;99.90
41678;DHT22;27364;49.026;8.712;2022-12-18T03:15:45;-6.20;99.90
41678;DHT22;27364;49.026;8.712;2022-12-18T03:18:19;-6.20;99.90
41678;DHT22;27364;49.026;8.712;2022-12-18T03:20:47;-6.10;99.90
41678;DHT22;27364;49.026;8.712;2022-12-18T03:23:16;-6.10;99.90
41678;DHT22;27364;49.026;8.712;2022-12-18T03:25:44;-6.20;99.90
41678;DHT22;27364;49.026;8.712;2022-12-18T03:28:14;-6.20;99.90
41678;DHT22;27364;49.026;8.712;2022-12-18T03:30:43;-6.20;99.90
41678;DHT22;27364;49.026;8.712;2022-12-18T03:35:43;-6.20;99.90
41678;DHT22;27364;49.026;8.712;2022-12-18T03:38:10;-6.20;99.90
41678;DHT22;27364;49.026;8.712;2022-12-18T03:43:49;-6.10;99.90
41678;DHT22;27364;49.026;8.712;2022-12-18T03:46:36;-6.10;99.90
41678;DHT22;27364;49.026;8.712;2022-12-18T03:49:12;-6.00;99.90
41678;DHT22;27364;49.026;8.712;2022-12-18T03:54:18;-5.90;99.90
41678;DHT22;27364;49.026;8.712;2022-12-18T03:56:51;-5.80;99.90
41678;DHT22;27364;49.026;8.712;2022-12-18T03:59:20;-5.70;99.90
41678;DHT22;27364;49.026;8.712;2022-12-18T04:01:49;-5.70;99.90
41678;DHT22;27364;49.026;8.712;2022-12-18T04:04:18;-5.70;99.90
41678;DHT22;27364;49.026;8.712;2022-12-18T04:06:46;-5.70;99.90
41678;DHT22;27364;49.026;8.712;2022-12-18T04:09:13;-5.70;99.90
41678;DHT22;27364;49.026;8.712;2022-12-18T04:11:40;-5.70;99.90
41678;DHT22;27364;49.026;8.712;2022-12-18T04:14:07;-5.70;99.90
41678;DHT22;27364;49.026;8.712;2022-12-18T04:16:32;-5.70;99.90
41678;DHT22;27364;49.026;8.712;2022-12-18T04:18:58;-5.70;99.90
41678;DHT22;27364;49.026;8.712;2022-12-18T04:21:24;-5.70;99.90
41678;DHT22;27364;49.026;8.712;2022-12-18T04:23:49;-5.70;99.90
41678;DHT22;27364;49.026;8.712;2022-12-18T04:26:15;-5.70;99.90
41678;DHT22;27364;49.026;8.712;2022-12-18T04:28:40;-5.70;99.90
41678;DHT22;27364;49.026;8.712;2022-12-18T04:31:06;-5.70;99.90
41678;DHT22;27364;49.026;8.712;2022-12-18T04:33:32;-5.80;99.90
41678;DHT22;27364;49.026;8.712;2022-12-18T04:35:57;-5.80;99.90
41678;DHT22;27364;49.026;8.712;2022-12-18T04:38:23;-5.80;99.90
41678;DHT22;27364;49.026;8.712;2022-12-18T04:40:48;-5.80;99.90
41678;DHT22;27364;49.026;8.712;2022-12-18T04:43:14;-5.80;99.90
41678;DHT22;27364;49.026;8.712;2022-12-18T04:45:39;-5.70;99.90
41678;DHT22;27364;49.026;8.712;2022-12-18T04:48:05;-5.80;99.90
41678;DHT22;27364;49.026;8.712;2022-12-18T04:50:31;-5.70;99.90
41678;DHT22;27364;49.026;8.712;2022-12-18T04:52:57;-5.70;99.90
41678;DHT22;27364;49.026;8.712;2022-12-18T04:55:23;-5.70;99.90
41678;DHT22;27364;49.026;8.712;2022-12-18T04:57:49;-5.80;99.90
41678;DHT22;27364;49.026;8.712;2022-12-18T05:00:15;-5.80;99.90
41678;DHT22;27364;49.026;8.712;2022-12-18T05:02:41;-5.70;99.90
41678;DHT22;27364;49.026;8.712;2022-12-18T05:05:06;-5.80;99.90
41678;DHT22;27364;49.026;8.712;2022-12-18T05:07:32;-5.80;99.90
41678;DHT22;27364;49.026;8.712;2022-12-18T05:09:58;-5.80;99.90
41678;DHT22;27364;49.026;8.712;2022-12-18T05:12:23;-5.80;99.90
41678;DHT22;27364;49.026;8.712;2022-12-18T05:14:49;-5.80;99.90
41678;DHT22;27364;49.026;8.712;2022-12-18T05:17:14;-5.80;99.90
41678;DHT22;27364;49.026;8.712;2022-12-18T05:19:40;-5.80;99.90
41678;DHT22;27364;49.026;8.712;2022-12-18T05:22:05;-5.80;99.90
41678;DHT22;27364;49.026;8.712;2022-12-18T05:24:31;-5.70;99.90
41678;DHT22;27364;49.026;8.712;2022-12-18T05:26:56;-5.80;99.90
41678;DHT22;27364;49.026;8.712;2022-12-18T05:29:22;-5.70;99.90
41678;DHT22;27364;49.026;8.712;2022-12-18T05:31:47;-5.70;99.90
41678;DHT22;27364;49.026;8.712;2022-12-18T05:34:14;-5.70;99.90
41678;DHT22;27364;49.026;8.712;2022-12-18T05:36:40;-5.60;99.90
41678;DHT22;27364;49.026;8.712;2022-12-18T05:39:05;-5.60;99.90
41678;DHT22;27364;49.026;8.712;2022-12-18T05:41:31;-5.60;99.90
41678;DHT22;27364;49.026;8.712;2022-12-18T05:43:58;-5.60;99.90
41678;DHT22;27364;49.026;8.712;2022-12-18T05:46:23;-5.60;99.90
41678;DHT22;27364;49.026;8.712;2022-12-18T05:48:49;-5.60;99.90
41678;DHT22;27364;49.026;8.712;2022-12-18T05:51:18;-5.60;99.90
41678;DHT22;27364;49.026;8.712;2022-12-18T05:53:44;-5.60;99.90
41678;DHT22;27364;49.026;8.712;2022-12-18T05:56:13;-5.70;99.90
41678;DHT22;27364;49.026;8.712;2022-12-18T05:58:40;-5.70;99.90
41678;DHT22;27364;49.026;8.712;2022-12-18T06:03:32;-5.70;99.90
41678;DHT22;27364;49.026;8.712;2022-12-18T06:05:58;-5.70;99.90
41678;DHT22;27364;49.026;8.712;2022-12-18T06:08:24;-5.70;99.90
41678;DHT22;27364;49.026;8.712;2022-12-18T06:10:51;-5.80;99.90
41678;DHT22;27364;49.026;8.712;2022-12-18T06:13:18;-5.80;99.90
41678;DHT22;27364;49.026;8.712;2022-12-18T06:15:43;-5.80;99.90
41678;DHT22;27364;49.026;8.712;2022-12-18T06:18:09;-5.80;99.90
41678;DHT22;27364;49.026;8.712;2022-12-18T06:20:34;-5.80;99.90
41678;DHT22;27364;49.026;8.712;2022-12-18T06:23:02;-5.80;99.90
41678;DHT22;27364;49.026;8.712;2022-12-18T06:25:28;-5.90;99.90
41678;DHT22;27364;49.026;8.712;2022-12-18T06:27:54;-5.90;99.90
41678;DHT22;27364;49.026;8.712;2022-12-18T06:30:19;-5.90;99.90
41678;DHT22;27364;49.026;8.712;2022-12-18T06:32:45;-5.90;99.90
41678;DHT22;27364;49.026;8.712;2022-12-18T06:35:10;-5.90;99.90
41678;DHT22;27364;49.026;8.712;2022-12-18T06:37:36;-6.00;99.90
41678;DHT22;27364;49.026;8.712;2022-12-18T06:40:07;-5.90;99.90
41678;DHT22;27364;49.026;8.712;2022-12-18T06:42:33;-6.00;99.90
41678;DHT22;27364;49.026;8.712;2022-12-18T06:44:58;-6.00;99.90
41678;DHT22;27364;49.026;8.712;2022-12-18T06:47:24;-6.00;99.90
41678;DHT22;27364;49.026;8.712;2022-12-18T06:49:49;-6.10;99.90
41678;DHT22;27364;49.026;8.712;2022-12-18T06:52:15;-6.10;99.90
41678;DHT22;27364;49.026;8.712;2022-12-18T06:54:40;-6.10;99.90
41678;DHT22;27364;49.026;8.712;2022-12-18T06:57:06;-6.10;99.90
41678;DHT22;27364;49.026;8.712;2022-12-18T06:59:31;-6.10;99.90
41678;DHT22;27364;49.026;8.712;2022-12-18T07:01:57;-6.10;99.90
41678;DHT22;27364;49.026;8.712;2022-12-18T07:04:30;-6.10;99.90
41678;DHT22;27364;49.026;8.712;2022-12-18T07:06:56;-6.10;99.90
41678;DHT22;27364;49.026;8.712;2022-12-18T07:09:22;-6.10;99.90
41678;DHT22;27364;49.026;8.712;2022-12-18T07:11:48;-6.10;99.90
41678;DHT22;27364;49.026;8.712;2022-12-18T07:14:13;-6.20;99.90
41678;DHT22;27364;49.026;8.712;2022-12-18T07:16:39;-6.20;99.90
41678;DHT22;27364;49.026;8.712;2022-12-18T07:19:04;-6.20;99.90
41678;DHT22;27364;49.026;8.712;2022-12-18T07:21:30;-6.20;99.90
41678;DHT22;27364;49.026;8.712;2022-12-18T07:23:56;-6.30;99.90
41678;DHT22;27364;49.026;8.712;2022-12-18T07:26:22;-6.40;99.90
41678;DHT22;27364;49.026;8.712;2022-12-18T07:28:47;-6.30;99.90
41678;DHT22;27364;49.026;8.712;2022-12-18T07:31:19;-6.40;99.90
41678;DHT22;27364;49.026;8.712;2022-12-18T07:33:46;-6.30;99.90
41678;DHT22;27364;49.026;8.712;2022-12-18T07:36:12;-6.20;99.90
41678;DHT22;27364;49.026;8.712;2022-12-18T07:38:37;-6.30;99.90
41678;DHT22;27364;49.026;8.712;2022-12-18T07:41:08;-6.30;99.90
41678;DHT22;27364;49.026;8.712;2022-12-18T07:43:34;-6.20;99.90
41678;DHT22;27364;49.026;8.712;2022-12-18T07:46:00;-6.20;99.90
41678;DHT22;27364;49.026;8.712;2022-12-18T07:48:26;-6.20;99.90
41678;DHT22;27364;49.026;8.712;2022-12-18T07:50:52;-6.20;99.90
41678;DHT22;27364;49.026;8.712;2022-12-18T07:53:18;-6.10;99.90
41678;DHT22;27364;49.026;8.712;2022-12-18T07:55:43;-6.00;99.90
41678;DHT22;27364;49.026;8.712;2022-12-18T07:58:09;-5.90;99.90
41678;DHT22;27364;49.026;8.712;2022-12-18T08:00:34;-5.90;99.90
41678;DHT22;27364;49.026;8.712;2022-12-18T08:03:00;-5.90;99.90
41678;DHT22;27364;49.026;8.712;2022-12-18T08:05:26;-6.10;99.90
41678;DHT22;27364;49.026;8.712;2022-12-18T08:07:53;-6.10;99.90
41678;DHT22;27364;49.026;8.712;2022-12-18T08:10:18;-6.00;99.90
41678;DHT22;27364;49.026;8.712;2022-12-18T08:12:44;-5.90;99.90
41678;DHT22;27364;49.026;8.712;2022-12-18T08:15:10;-5.90;99.90
41678;DHT22;27364;49.026;8.712;2022-12-18T08:17:35;-5.90;99.90
41678;DHT22;27364;49.026;8.712;2022-12-18T08:20:01;-5.90;99.90
41678;DHT22;27364;49.026;8.712;2022-12-18T08:22:27;-5.90;99.90
41678;DHT22;27364;49.026;8.712;2022-12-18T08:24:52;-5.80;99.90
41678;DHT22;27364;49.026;8.712;2022-12-18T08:27:18;-5.70;99.90
41678;DHT22;27364;49.026;8.712;2022-12-18T08:29:43;-5.70;99.90
41678;DHT22;27364;49.026;8.712;2022-12-18T08:32:09;-5.60;99.90
41678;DHT22;27364;49.026;8.712;2022-12-18T08:34:34;-5.60;99.90
41678;DHT22;27364;49.026;8.712;2022-12-18T08:37:00;-5.60;99.90
41678;DHT22;27364;49.026;8.712;2022-12-18T08:39:26;-5.50;99.90
41678;DHT22;27364;49.026;8.712;2022-12-18T08:41:51;-5.40;99.90
41678;DHT22;27364;49.026;8.712;2022-12-18T08:44:39;-5.30;99.90
41678;DHT22;27364;49.026;8.712;2022-12-18T08:47:06;-5.20;99.90
41678;DHT22;27364;49.026;8.712;2022-12-18T08:49:32;-5.10;99.90
41678;DHT22;27364;49.026;8.712;2022-12-18T08:51:58;-5.00;99.90
41678;DHT22;27364;49.026;8.712;2022-12-18T08:54:24;-4.90;99.90
41678;DHT22;27364;49.026;8.712;2022-12-18T08:56:50;-4.80;99.90
41678;DHT22;27364;49.026;8.712;2022-12-18T08:59:17;-4.80;99.90
41678;DHT22;27364;49.026;8.712;2022-12-18T09:01:43;-4.70;99.90
41678;DHT22;27364;49.026;8.712;2022-12-18T09:04:12;-4.60;99.90
41678;DHT22;27364;49.026;8.712;2022-12-18T09:06:37;-4.50;99.90
41678;DHT22;27364;49.026;8.712;2022-12-18T09:09:04;-4.40;99.90
41678;DHT22;27364;49.026;8.712;2022-12-18T09:11:31;-4.30;99.90
41678;DHT22;27364;49.026;8.712;2022-12-18T09:13:57;-4.30;99.90
41678;DHT22;27364;49.026;8.712;2022-12-18T09:16:24;-4.20;99.90
41678;DHT22;27364;49.026;8.712;2022-12-18T09:18:50;-4.00;99.90
41678;DHT22;27364;49.026;8.712;2022-12-18T09:21:18;-3.90;99.90
41678;DHT22;27364;49.026;8.712;2022-12-18T09:23:52;-3.90;99.90
41678;DHT22;27364;49.026;8.712;2022-12-18T09:26:18;-3.80;99.90
41678;DHT22;27364;49.026;8.712;2022-12-18T09:28:44;-3.70;99.90
41678;DHT22;27364;49.026;8.712;2022-12-18T09:31:11;-3.60;99.90
41678;DHT22;27364;49.026;8.712;2022-12-18T09:33:37;-3.60;99.90
41678;DHT22;27364;49.026;8.712;2022-12-18T09:36:05;-3.50;99.90
41678;DHT22;27364;49.026;8.712;2022-12-18T09:38:31;-3.50;99.90
41678;DHT22;27364;49.026;8.712;2022-12-18T09:41:14;-3.40;99.90
41678;DHT22;27364;49.026;8.712;2022-12-18T09:43:44;-3.30;99.90
41678;DHT22;27364;49.026;8.712;2022-12-18T09:46:28;-3.20;99.90
41678;DHT22;27364;49.026;8.712;2022-12-18T09:48:57;-3.10;99.90
41678;DHT22;27364;49.026;8.712;2022-12-18T09:51:36;-3.00;99.90
41678;DHT22;27364;49.026;8.712;2022-12-18T09:54:12;-2.90;99.90
41678;DHT22;27364;49.026;8.712;2022-12-18T09:56:41;-2.80;99.90
41678;DHT22;27364;49.026;8.712;2022-12-18T09:59:09;-2.70;99.90
41678;DHT22;27364;49.026;8.712;2022-12-18T10:01:40;-2.70;99.90
41678;DHT22;27364;49.026;8.712;2022-12-18T10:04:08;-2.60;99.90
41678;DHT22;27364;49.026;8.712;2022-12-18T10:06:49;-2.60;99.90
41678;DHT22;27364;49.026;8.712;2022-12-18T10:09:24;-2.50;99.90
41678;DHT22;27364;49.026;8.712;2022-12-18T10:12:14;-2.40;99.90
41678;DHT22;27364;49.026;8.712;2022-12-18T10:17:45;-2.20;99.90
41678;DHT22;27364;49.026;8.712;2022-12-18T10:20:27;-2.10;99.90
41678;DHT22;27364;49.026;8.712;2022-12-18T10:23:22;-2.10;99.90
41678;DHT22;27364;49.026;8.712;2022-12-18T10:26:03;-1.90;99.90
41678;DHT22;27364;49.026;8.712;2022-12-18T10:28:35;-1.80;99.90
41678;DHT22;27364;49.026;8.712;2022-12-18T10:31:01;-1.80;99.90
41678;DHT22;27364;49.026;8.712;2022-12-18T10:33:29;-1.70;99.90
41678;DHT22;27364;49.026;8.712;2022-12-18T10:35:55;-1.60;99.90
41678;DHT22;27364;49.026;8.712;2022-12-18T10:38:24;-1.60;99.90
41678;DHT22;27364;49.026;8.712;2022-12-18T10:43:33;-1.50;99.90
41678;DHT22;27364;49.026;8.712;2022-12-18T10:51:28;-1.50;99.90
41678;DHT22;27364;49.026;8.712;2022-12-18T10:56:29;-1.30;99.90
41678;DHT22;27364;49.026;8.712;2022-12-18T10:59:04;-1.20;99.90
41678;DHT22;27364;49.026;8.712;2022-12-18T11:01:51;-1.10;99.90
41678;DHT22;27364;49.026;8.712;2022-12-18T11:04:20;-1.10;99.90
41678;DHT22;27364;49.026;8.712;2022-12-18T11:09:25;-1.00;99.90
41678;DHT22;27364;49.026;8.712;2022-12-18T11:11:53;-0.90;99.90
41678;DHT22;27364;49.026;8.712;2022-12-18T11:14:21;-0.80;99.90
41678;DHT22;27364;49.026;8.712;2022-12-18T11:16:49;-0.80;99.90
41678;DHT22;27364;49.026;8.712;2022-12-18T11:19:35;-0.70;99.90
41678;DHT22;27364;49.026;8.712;2022-12-18T11:22:16;-0.70;99.90
41678;DHT22;27364;49.026;8.712;2022-12-18T11:24:43;-0.70;99.90
41678;DHT22;27364;49.026;8.712;2022-12-18T11:27:17;-0.70;99.90
41678;DHT22;27364;49.026;8.712;2022-12-18T11:29:43;-0.60;99.90
41678;DHT22;27364;49.026;8.712;2022-12-18T11:32:43;-0.60;99.90
41678;DHT22;27364;49.026;8.712;2022-12-18T11:37:59;-0.60;99.90
41678;DHT22;27364;49.026;8.712;2022-12-18T11:40:42;-0.40;99.90
41678;DHT22;27364;49.026;8.712;2022-12-18T11:43:18;-0.40;99.90
41678;DHT22;27364;49.026;8.712;2022-12-18T11:45:49;-0.30;99.90
41678;DHT22;27364;49.026;8.712;2022-12-18T11:48:27;-0.20;99.90
41678;DHT22;27364;49.026;8.712;2022-12-18T11:50:59;-0.20;99.90
41678;DHT22;27364;49.026;8.712;2022-12-18T11:53:27;-0.20;99.90
41678;DHT22;27364;49.026;8.712;2022-12-18T11:56:05;-0.30;99.90
41678;DHT22;27364;49.026;8.712;2022-12-18T11:58:46;-0.30;99.90
41678;DHT22;27364;49.026;8.712;2022-12-18T12:07:16;-0.40;99.90
41678;DHT22;27364;49.026;8.712;2022-12-18T12:12:23;-0.40;99.90
41678;DHT22;27364;49.026;8.712;2022-12-18T12:18:19;-0.50;99.90
41678;DHT22;27364;49.026;8.712;2022-12-18T12:23:51;-0.50;99.90
41678;DHT22;27364;49.026;8.712;2022-12-18T12:37:34;-0.60;99.90
41678;DHT22;27364;49.026;8.712;2022-12-18T12:40:04;-0.50;99.90
41678;DHT22;27364;49.026;8.712;2022-12-18T12:42:39;-0.50;99.90
41678;DHT22;27364;49.026;8.712;2022-12-18T12:45:37;-0.40;99.90
41678;DHT22;27364;49.026;8.712;2022-12-18T12:48:06;-0.40;99.90
41678;DHT22;27364;49.026;8.712;2022-12-18T12:50:36;-0.40;99.90
41678;DHT22;27364;49.026;8.712;2022-12-18T12:53:07;-0.30;99.90
41678;DHT22;27364;49.026;8.712;2022-12-18T12:55:34;-0.30;99.90
41678;DHT22;27364;49.026;8.712;2022-12-18T12:58:29;-0.20;99.90
41678;DHT22;27364;49.026;8.712;2022-12-18T13:04:13;-0.20;99.90
41678;DHT22;27364;49.026;8.712;2022-12-18T13:06:50;-0.20;99.90
41678;DHT22;27364;49.026;8.712;2022-12-18T13:09:19;-0.20;99.90
41678;DHT22;27364;49.026;8.712;2022-12-18T13:11:46;-0.20;99.90
41678;DHT22;27364;49.026;8.712;2022-12-18T13:14:33;-0.30;99.90
41678;DHT22;27364;49.026;8.712;2022-12-18T13:19:41;-0.20;99.90
41678;DHT22;27364;49.026;8.712;2022-12-18T13:22:20;-0.20;99.90
41678;DHT22;27364;49.026;8.712;2022-12-18T13:24:46;-0.20;99.90
41678;DHT22;27364;49.026;8.712;2022-12-18T13:38:33;-0.20;99.90
41678;DHT22;27364;49.026;8.712;2022-12-18T13:46:29;-0.30;99.90
41678;DHT22;27364;49.026;8.712;2022-12-18T13:51:48;-0.30;99.90
41678;DHT22;27364;49.026;8.712;2022-12-18T13:54:36;-0.40;99.90
41678;DHT22;27364;49.026;8.712;2022-12-18T13:57:02;-0.40;99.90
41678;DHT22;27364;49.026;8.712;2022-12-18T13:59:36;-0.40;99.90
41678;DHT22;27364;49.026;8.712;2022-12-18T14:02:13;-0.50;99.90
41678;DHT22;27364;49.026;8.712;2022-12-18T14:04:39;-0.60;99.90
41678;DHT22;27364;49.026;8.712;2022-12-18T14:07:07;-0.60;99.90
41678;DHT22;27364;49.026;8.712;2022-12-18T14:09:39;-0.60;99.90
41678;DHT22;27364;49.026;8.712;2022-12-18T14:12:06;-0.60;99.90
41678;DHT22;27364;49.026;8.712;2022-12-18T14:15:01;-0.70;99.90
41678;DHT22;27364;49.026;8.712;2022-12-18T14:17:27;-0.70;99.90
41678;DHT22;27364;49.026;8.712;2022-12-18T14:19:52;-0.70;99.90
41678;DHT22;27364;49.026;8.712;2022-12-18T14:22:21;-0.70;99.90
41678;DHT22;27364;49.026;8.712;2022-12-18T14:25:13;-0.70;99.90
41678;DHT22;27364;49.026;8.712;2022-12-18T14:27:49;-0.80;99.90
41678;DHT22;27364;49.026;8.712;2022-12-18T14:30:38;-0.80;99.90
41678;DHT22;27364;49.026;8.712;2022-12-18T14:33:10;-0.80;99.90
41678;DHT22;27364;49.026;8.712;2022-12-18T14:35:39;-0.80;99.90
41678;DHT22;27364;49.026;8.712;2022-12-18T14:40:35;-0.80;99.90
41678;DHT22;27364;49.026;8.712;2022-12-18T14:43:00;-0.90;99.90
41678;DHT22;27364;49.026;8.712;2022-12-18T14:45:45;-0.90;99.90
41678;DHT22;27364;49.026;8.712;2022-12-18T14:50:37;-0.90;99.90
41678;DHT22;27364;49.026;8.712;2022-12-18T14:53:03;-0.90;99.90
41678;DHT22;27364;49.026;8.712;2022-12-18T14:55:28;-0.90;99.90
41678;DHT22;27364;49.026;8.712;2022-12-18T14:57:55;-0.90;99.90
41678;DHT22;27364;49.026;8.712;2022-12-18T15:00:23;-0.90;99.90
41678;DHT22;27364;49.026;8.712;2022-12-18T15:02:54;-1.00;99.90
41678;DHT22;27364;49.026;8.712;2022-12-18T15:05:26;-1.00;99.90
41678;DHT22;27364;49.026;8.712;2022-12-18T15:07:54;-1.00;99.90
41678;DHT22;27364;49.026;8.712;2022-12-18T15:10:25;-1.10;99.90
41678;DHT22;27364;49.026;8.712;2022-12-18T15:25:40;-1.10;99.90
41678;DHT22;27364;49.026;8.712;2022-12-18T15:33:43;-1.20;99.90
41678;DHT22;27364;49.026;8.712;2022-12-18T15:36:14;-1.20;99.90
41678;DHT22;27364;49.026;8.712;2022-12-18T15:38:40;-1.20;99.90
41678;DHT22;27364;49.026;8.712;2022-12-18T15:41:06;-1.20;99.90
41678;DHT22;27364;49.026;8.712;2022-12-18T15:43:37;-1.20;99.90
41678;DHT22;27364;49.026;8.712;2022-12-18T15:46:22;-1.30;99.90
41678;DHT22;27364;49.026;8.712;2022-12-18T15:48:53;-1.30;99.90
41678;DHT22;27364;49.026;8.712;2022-12-18T15:51:20;-1.30;99.90
41678;DHT22;27364;49.026;8.712;2022-12-18T15:53:47;-1.30;99.90
41678;DHT22;27364;49.026;8.712;2022-12-18T15:56:14;-1.20;99.90
41678;DHT22;27364;49.026;8.712;2022-12-18T15:59:00;-1.20;99.90
41678;DHT22;27364;49.026;8.712;2022-12-18T16:01:29;-1.20;99.90
41678;DHT22;27364;49.026;8.712;2022-12-18T16:03:55;-1.20;99.90
41678;DHT22;27364;49.026;8.712;2022-12-18T16:06:21;-1.20;99.90
41678;DHT22;27364;49.026;8.712;2022-12-18T16:08:47;-1.20;99.90
41678;DHT22;27364;49.026;8.712;2022-12-18T16:11:28;-1.20;99.90
41678;DHT22;27364;49.026;8.712;2022-12-18T16:16:41;-1.20;99.90
41678;DHT22;27364;49.026;8.712;2022-12-18T16:19:07;-1.20;99.90
41678;DHT22;27364;49.026;8.712;2022-12-18T16:21:32;-1.20;99.90
41678;DHT22;27364;49.026;8.712;2022-12-18T16:23:58;-1.20;99.90
41678;DHT22;27364;49.026;8.712;2022-12-18T16:26:23;-1.20;99.90
41678;DHT22;27364;49.026;8.712;2022-12-18T16:28:49;-1.20;99.90
41678;DHT22;27364;49.026;8.712;2022-12-18T16:31:14;-1.20;99.90
41678;DHT22;27364;49.026;8.712;2022-12-18T16:33:40;-1.20;99.90
41678;DHT22;27364;49.026;8.712;2022-12-18T16:36:06;-1.20;99.90
41678;DHT22;27364;49.026;8.712;2022-12-18T16:38:32;-1.20;99.90
41678;DHT22;27364;49.026;8.712;2022-12-18T16:40:57;-1.20;99.90
41678;DHT22;27364;49.026;8.712;2022-12-18T16:43:42;-1.10;99.90
41678;DHT22;27364;49.026;8.712;2022-12-18T16:46:07;-1.20;99.90
41678;DHT22;27364;49.026;8.712;2022-12-18T16:48:33;-1.20;99.90
41678;DHT22;27364;49.026;8.712;2022-12-18T16:51:01;-1.20;99.90
41678;DHT22;27364;49.026;8.712;2022-12-18T16:53:27;-1.10;99.90
41678;DHT22;27364;49.026;8.712;2022-12-18T16:55:56;-1.10;99.90
41678;DHT22;27364;49.026;8.712;2022-12-18T16:58:22;-1.20;99.90
41678;DHT22;27364;49.026;8.712;2022-12-18T17:00:48;-1.10;99.90
41678;DHT22;27364;49.026;8.712;2022-12-18T17:03:13;-1.20;99.90
41678;DHT22;27364;49.026;8.712;2022-12-18T17:05:39;-1.20;99.90
41678;DHT22;27364;49.026;8.712;2022-12-18T17:08:05;-1.20;99.90
41678;DHT22;27364;49.026;8.712;2022-12-18T17:10:31;-1.20;99.90
41678;DHT22;27364;49.026;8.712;2022-12-18T17:12:58;-1.10;99.90
41678;DHT22;27364;49.026;8.712;2022-12-18T17:15:25;-1.20;99.90
41678;DHT22;27364;49.026;8.712;2022-12-18T17:17:51;-1.20;99.90
41678;DHT22;27364;49.026;8.712;2022-12-18T17:20:16;-1.20;99.90
41678;DHT22;27364;49.026;8.712;2022-12-18T17:22:42;-1.20;99.90
41678;DHT22;27364;49.026;8.712;2022-12-18T17:25:07;-1.20;99.90
41678;DHT22;27364;49.026;8.712;2022-12-18T17:27:33;-1.20;99.90
41678;DHT22;27364;49.026;8.712;2022-12-18T17:29:58;-1.20;99.90
41678;DHT22;27364;49.026;8.712;2022-12-18T17:32:24;-1.20;99.90
41678;DHT22;27364;49.026;8.712;2022-12-18T17:34:49;-1.20;99.90
41678;DHT22;27364;49.026;8.712;2022-12-18T17:37:15;-1.20;99.90
41678;DHT22;27364;49.026;8.712;2022-12-18T17:39:41;-1.20;99.90